Maldives Meteorological Service

SYNOP

Station Code SYNOP
43555
AAXX 17124 43555 11460 72407 10280 20257 30080 40082 60052 72582 8492/ 333 10295 58004 83816 81917 87460=
43533
AAXX 17124 43533 12460 42711 10295 20242 30074 40076 69902 82232 333 10309 59013 82818 83077=
43577
AAXX 17124 43577 12464 79901 10304 20256 30082 40084 60002 82232 333 10322 58003 82818 87076=
43588
AAXX 17124 43588 12462 79901 10302 20257 30083 40084 60002 82208 333 10314 58003 82818 87276=
43599
AAXX 17124 43599 12460 79902 10296 20252 30083 40085 60002 82208 333 10319 58001 82817 87275=
Last Updated : 2018-07-17 17:00:30